createdAt,value
2022-09-25T00:00:57.184Z,4.07
2022-09-25T00:03:26.244Z,4.53
2022-09-25T00:05:53.438Z,4.43
2022-09-25T00:08:20.349Z,4.23
2022-09-25T00:10:50.240Z,3.77
2022-09-25T00:13:22.939Z,4.10
2022-09-25T00:15:53.034Z,3.77
2022-09-25T00:18:40.611Z,3.63
2022-09-25T00:21:09.745Z,3.77
2022-09-25T00:23:36.465Z,3.70
2022-09-25T00:26:05.840Z,3.67
2022-09-25T00:28:32.534Z,3.93
2022-09-25T00:30:59.920Z,3.60
2022-09-25T00:33:26.725Z,4.17
2022-09-25T00:35:53.317Z,4.57
2022-09-25T00:38:19.971Z,4.77
2022-09-25T00:40:46.730Z,4.33
2022-09-25T00:43:36.888Z,4.80
2022-09-25T00:46:26.111Z,5.47
2022-09-25T00:48:59.122Z,5.50
2022-09-25T00:51:30.355Z,4.87
2022-09-25T00:54:01.130Z,5.23
2022-09-25T00:56:33.355Z,4.63
2022-09-25T00:59:00.375Z,4.43
2022-09-25T01:01:27.438Z,4.03
2022-09-25T01:03:56.002Z,4.00
2022-09-25T01:06:25.323Z,3.70
2022-09-25T01:08:52.163Z,4.00
2022-09-25T01:11:18.801Z,3.50
2022-09-25T01:13:45.762Z,2.87
2022-09-25T01:16:32.759Z,2.60
2022-09-25T01:19:06.130Z,3.00
2022-09-25T01:22:00.090Z,3.10
2022-09-25T01:24:26.897Z,2.60
2022-09-25T01:27:38.215Z,2.90
2022-09-25T01:30:09.568Z,3.00
2022-09-25T01:33:18.427Z,2.70
2022-09-25T01:36:13.499Z,2.77
2022-09-25T01:38:59.851Z,2.80
2022-09-25T01:41:35.799Z,2.93
2022-09-25T01:44:06.179Z,3.10
2022-09-25T01:46:53.891Z,3.20
2022-09-25T01:49:26.563Z,3.20
2022-09-25T01:51:56.020Z,3.10
2022-09-25T01:54:32.763Z,3.20
2022-09-25T01:57:10.411Z,3.23
2022-09-25T01:59:56.071Z,3.50
2022-09-25T02:02:27.059Z,3.57
2022-09-25T02:04:59.614Z,3.57
2022-09-25T02:07:36.353Z,3.83
2022-09-25T02:10:33.964Z,3.73
2022-09-25T02:13:09.179Z,4.10
2022-09-25T02:15:40.964Z,4.40
2022-09-25T02:18:30.807Z,4.63
2022-09-25T02:21:05.212Z,4.63
2022-09-25T02:23:53.985Z,4.87
2022-09-25T02:26:28.287Z,4.37
2022-09-25T02:28:56.140Z,4.77
2022-09-25T02:31:31.056Z,4.67
2022-09-25T02:33:58.726Z,3.77
2022-09-25T02:36:25.415Z,4.17
2022-09-25T02:38:55.558Z,4.13
2022-09-25T02:44:18.354Z,4.37
2022-09-25T02:47:12.809Z,4.30
2022-09-25T02:50:13.407Z,4.10
2022-09-25T02:53:06.244Z,4.60
2022-09-25T02:55:59.603Z,4.50
2022-09-25T02:58:42.690Z,4.57
2022-09-25T03:01:13.969Z,4.40
2022-09-25T03:03:44.339Z,4.57
2022-09-25T03:06:11.381Z,4.63
2022-09-25T03:08:42.747Z,4.93
2022-09-25T03:11:12.558Z,4.40
2022-09-25T03:13:40.099Z,3.47
2022-09-25T03:16:12.888Z,3.80
2022-09-25T03:18:39.584Z,3.60
2022-09-25T03:21:06.303Z,3.60
2022-09-25T03:23:33.276Z,3.13
2022-09-25T03:26:00.050Z,3.10
2022-09-25T03:28:26.766Z,3.30
2022-09-25T03:31:19.764Z,3.10
2022-09-25T03:33:47.275Z,2.90
2022-09-25T03:36:20.211Z,3.37
2022-09-25T03:38:49.234Z,2.90
2022-09-25T03:41:20.168Z,3.30
2022-09-25T03:43:49.960Z,3.47
2022-09-25T03:46:17.412Z,3.13
2022-09-25T03:48:44.271Z,3.57
2022-09-25T03:51:11.444Z,3.03
2022-09-25T03:53:40.046Z,3.37
2022-09-25T03:56:12.483Z,3.30
2022-09-25T03:58:39.156Z,2.77
2022-09-25T04:01:06.918Z,2.83
2022-09-25T04:03:34.617Z,2.77
2022-09-25T04:06:04.812Z,3.10
2022-09-25T04:08:32.702Z,3.03
2022-09-25T04:11:00.634Z,3.40
2022-09-25T04:13:33.505Z,3.97
2022-09-25T04:16:01.408Z,4.00
2022-09-25T04:18:31.440Z,3.23
2022-09-25T04:20:59.365Z,2.93
2022-09-25T04:23:26.315Z,2.80
2022-09-25T04:25:54.136Z,2.63
2022-09-25T04:28:23.238Z,3.23
2022-09-25T04:30:50.260Z,3.03
2022-09-25T04:33:36.680Z,3.20
2022-09-25T04:36:04.603Z,3.37
2022-09-25T04:38:32.478Z,3.33
2022-09-25T04:41:02.749Z,3.50
2022-09-25T04:43:30.499Z,4.43
2022-09-25T04:46:05.951Z,5.03
2022-09-25T04:48:33.274Z,5.20
2022-09-25T04:51:00.791Z,5.33
2022-09-25T04:53:29.898Z,5.70
2022-09-25T04:56:12.243Z,6.37
2022-09-25T04:58:45.092Z,6.33
2022-09-25T05:01:12.632Z,6.30
2022-09-25T05:03:39.326Z,6.77
2022-09-25T05:06:06.209Z,6.90
2022-09-25T05:08:32.912Z,6.90
2022-09-25T05:10:59.778Z,8.50
2022-09-25T05:13:28.039Z,7.37
2022-09-25T05:18:36.277Z,7.50
2022-09-25T05:21:04.487Z,7.80
2022-09-25T05:23:31.147Z,8.17
2022-09-25T05:26:02.164Z,7.40
2022-09-25T05:28:29.908Z,8.30
2022-09-25T05:31:02.708Z,9.03
2022-09-25T05:33:33.757Z,9.87
2022-09-25T05:36:05.115Z,10.97
2022-09-25T05:38:33.554Z,11.97
2022-09-25T05:41:10.793Z,11.50
2022-09-25T05:43:42.854Z,12.30
2022-09-25T05:46:10.787Z,12.63
2022-09-25T05:48:37.611Z,12.73
2022-09-25T05:51:04.467Z,14.03
2022-09-25T05:53:31.177Z,13.83
2022-09-25T05:56:02.513Z,13.23
2022-09-25T05:58:30.997Z,12.97
2022-09-25T06:01:03.161Z,13.40
2022-09-25T06:03:30.388Z,13.23
2022-09-25T06:05:58.397Z,14.27
2022-09-25T06:08:26.659Z,13.97
2022-09-25T06:10:57.083Z,14.27
2022-09-25T06:13:25.305Z,14.57
2022-09-25T06:15:52.790Z,13.77
2022-09-25T06:18:22.503Z,14.27
2022-09-25T06:20:50.119Z,13.70
2022-09-25T06:23:18.190Z,14.10
2022-09-25T06:25:45.650Z,13.03
2022-09-25T06:28:12.464Z,13.73
2022-09-25T06:30:39.568Z,13.80
2022-09-25T06:33:10.803Z,13.17
2022-09-25T06:35:45.037Z,13.80
2022-09-25T06:38:12.647Z,14.40
2022-09-25T06:40:41.390Z,13.77
2022-09-25T06:43:13.320Z,14.77
2022-09-25T06:45:41.283Z,14.13
2022-09-25T06:48:13.574Z,14.17
2022-09-25T06:50:52.126Z,14.90
2022-09-25T06:53:20.454Z,13.87
2022-09-25T06:55:47.828Z,13.87
2022-09-25T06:58:17.724Z,14.50
2022-09-25T07:00:48.968Z,14.20
2022-09-25T07:03:34.502Z,13.23
2022-09-25T07:06:02.194Z,12.57
2022-09-25T07:08:29.185Z,13.53
2022-09-25T07:10:57.716Z,12.73
2022-09-25T07:13:27.623Z,11.70
2022-09-25T07:16:10.012Z,12.90
2022-09-25T07:18:36.682Z,12.33
2022-09-25T07:21:12.823Z,13.03
2022-09-25T07:23:39.865Z,11.83
2022-09-25T07:26:07.552Z,12.30
2022-09-25T07:28:34.563Z,12.33
2022-09-25T07:31:14.494Z,12.47
2022-09-25T07:33:41.621Z,11.37
2022-09-25T07:36:09.190Z,12.20
2022-09-25T07:38:36.998Z,11.97
2022-09-25T07:41:07.967Z,11.93
2022-09-25T07:43:35.145Z,11.20
2022-09-25T07:46:01.873Z,10.90
2022-09-25T07:48:31.616Z,11.27
2022-09-25T07:51:02.557Z,10.47
2022-09-25T07:53:29.739Z,11.13
2022-09-25T07:56:06.091Z,10.40
2022-09-25T07:58:35.222Z,9.77
2022-09-25T08:01:04.037Z,10.00
2022-09-25T08:03:30.809Z,9.80
2022-09-25T08:06:02.572Z,10.93
2022-09-25T08:08:29.465Z,10.77
2022-09-25T08:11:06.652Z,10.70
2022-09-25T08:13:34.248Z,10.83
2022-09-25T08:16:05.256Z,10.83
2022-09-25T08:18:32.636Z,10.43
2022-09-25T08:21:03.056Z,10.63
2022-09-25T08:23:30.344Z,10.77
2022-09-25T08:25:57.281Z,11.17
2022-09-25T08:28:24.143Z,10.47
2022-09-25T08:30:50.984Z,10.40
2022-09-25T08:33:17.852Z,10.87
2022-09-25T08:35:44.530Z,10.53
2022-09-25T08:38:12.300Z,11.07
2022-09-25T08:40:46.766Z,10.07
2022-09-25T08:43:20.882Z,10.80
2022-09-25T08:46:07.559Z,10.47
2022-09-25T08:49:04.762Z,10.17
2022-09-25T08:51:38.888Z,9.90
2022-09-25T08:54:06.176Z,10.27
2022-09-25T08:56:35.093Z,9.50
2022-09-25T08:59:23.119Z,9.10
2022-09-25T09:01:54.781Z,9.67
2022-09-25T09:04:32.020Z,8.63
2022-09-25T09:07:28.040Z,10.50
2022-09-25T09:10:25.085Z,10.00
2022-09-25T09:13:16.192Z,9.97
2022-09-25T09:16:03.897Z,9.30
2022-09-25T09:18:36.172Z,10.17
2022-09-25T09:21:19.347Z,9.93
2022-09-25T09:23:58.446Z,9.90
2022-09-25T09:26:50.238Z,10.13
2022-09-25T09:29:47.608Z,10.47
2022-09-25T09:32:20.645Z,10.17
2022-09-25T09:35:07.471Z,10.20
2022-09-25T09:37:58.804Z,10.97
2022-09-25T09:40:47.141Z,10.33
2022-09-25T09:43:57.158Z,10.40
2022-09-25T09:46:40.301Z,10.30
2022-09-25T09:49:12.706Z,10.90
2022-09-25T09:51:55.154Z,10.87
2022-09-25T09:54:43.244Z,11.20
2022-09-25T09:57:18.995Z,10.13
2022-09-25T09:59:53.896Z,9.40
2022-09-25T10:02:20.632Z,8.80
2022-09-25T10:04:49.282Z,8.20
2022-09-25T10:07:18.493Z,8.13
2022-09-25T10:09:46.387Z,7.80
2022-09-25T10:12:24.023Z,7.87
2022-09-25T10:14:51.601Z,7.47
2022-09-25T10:17:20.166Z,7.00
2022-09-25T10:22:46.078Z,6.10
2022-09-25T10:25:13.449Z,6.67
2022-09-25T10:27:49.506Z,6.67
2022-09-25T10:30:20.300Z,6.20
2022-09-25T10:33:15.075Z,5.57
2022-09-25T10:35:45.372Z,4.70
2022-09-25T10:38:39.208Z,5.37
2022-09-25T10:41:12.011Z,4.30
2022-09-25T10:44:02.191Z,4.47
2022-09-25T10:46:52.630Z,4.60
2022-09-25T10:49:43.579Z,3.50
2022-09-25T10:52:13.834Z,3.50
2022-09-25T10:54:45.195Z,3.23
2022-09-25T10:57:38.229Z,3.27
2022-09-25T11:00:20.021Z,2.97
2022-09-25T11:02:47.693Z,2.87
2022-09-25T11:05:26.090Z,2.40
2022-09-25T11:07:57.057Z,1.90
2022-09-25T11:10:49.668Z,2.30
2022-09-25T11:13:26.029Z,2.30
2022-09-25T11:15:58.053Z,2.27
2022-09-25T11:18:47.379Z,2.30
2022-09-25T11:21:30.268Z,2.27
2022-09-25T11:23:59.731Z,1.90
2022-09-25T11:26:34.169Z,1.73
2022-09-25T11:29:16.721Z,1.40
2022-09-25T11:31:46.374Z,1.77
2022-09-25T11:34:27.459Z,2.03
2022-09-25T11:37:19.999Z,1.80
2022-09-25T11:40:12.480Z,1.77
2022-09-25T11:42:48.943Z,1.80
2022-09-25T11:45:19.919Z,1.83
2022-09-25T11:48:03.608Z,2.80
2022-09-25T11:50:42.902Z,2.57
2022-09-25T11:53:35.704Z,2.03
2022-09-25T11:56:20.546Z,2.13
2022-09-25T11:58:56.282Z,2.00
2022-09-25T12:01:30.818Z,2.23
2022-09-25T12:04:07.632Z,2.57
2022-09-25T12:06:48.279Z,1.80
2022-09-25T12:09:42.900Z,2.27
2022-09-25T12:12:17.207Z,1.80
2022-09-25T12:15:03.026Z,2.07
2022-09-25T12:17:48.184Z,1.80
2022-09-25T12:20:26.522Z,2.27
2022-09-25T12:22:56.288Z,2.40
2022-09-25T12:25:48.097Z,2.10
2022-09-25T12:28:16.318Z,2.20
2022-09-25T12:31:02.268Z,2.30
2022-09-25T12:33:59.239Z,2.07
2022-09-25T12:36:36.361Z,2.17
2022-09-25T12:39:42.845Z,2.30
2022-09-25T12:42:18.783Z,2.10
2022-09-25T12:45:10.191Z,1.70
2022-09-25T12:47:45.945Z,2.13
2022-09-25T12:50:17.318Z,2.47
2022-09-25T12:52:53.189Z,2.20
2022-09-25T12:55:31.956Z,2.57
2022-09-25T12:58:25.037Z,2.03
2022-09-25T13:01:11.393Z,2.53
2022-09-25T13:04:16.181Z,2.27
2022-09-25T13:06:50.392Z,2.63
2022-09-25T13:09:20.923Z,2.20
2022-09-25T13:12:00.687Z,2.10
2022-09-25T13:14:39.935Z,2.40
2022-09-25T13:17:11.132Z,2.23
2022-09-25T13:19:38.028Z,2.30
2022-09-25T13:22:12.652Z,2.30
2022-09-25T13:24:52.456Z,1.90
2022-09-25T13:27:22.715Z,1.80
2022-09-25T13:29:56.671Z,1.90
2022-09-25T13:32:28.965Z,1.73
2022-09-25T13:34:58.535Z,1.77
2022-09-25T13:37:34.810Z,1.60
2022-09-25T13:40:26.955Z,1.87
2022-09-25T13:42:54.364Z,1.67
2022-09-25T13:45:33.602Z,1.70
2022-09-25T13:48:09.988Z,1.57
2022-09-25T13:50:47.957Z,1.30
2022-09-25T13:53:25.086Z,1.40
2022-09-25T13:55:58.262Z,1.10
2022-09-25T13:58:32.083Z,1.50
2022-09-25T14:01:01.111Z,1.50
2022-09-25T14:03:46.544Z,1.10
2022-09-25T14:06:28.547Z,1.47
2022-09-25T14:09:01.314Z,1.20
2022-09-25T14:11:35.488Z,1.50
2022-09-25T14:14:05.173Z,1.17
2022-09-25T14:16:35.034Z,1.10
2022-09-25T14:19:04.791Z,1.00
2022-09-25T14:21:34.844Z,0.90
2022-09-25T14:24:23.422Z,1.00
2022-09-25T14:26:53.495Z,1.20
2022-09-25T14:29:25.341Z,1.17
2022-09-25T14:32:07.056Z,1.10
2022-09-25T14:35:09.756Z,1.07
2022-09-25T14:37:42.543Z,1.20
2022-09-25T14:40:25.678Z,1.20
2022-09-25T14:43:14.201Z,1.53
2022-09-25T14:45:40.894Z,1.23
2022-09-25T14:48:13.497Z,1.50
2022-09-25T14:50:47.733Z,1.63
2022-09-25T14:53:29.873Z,1.20
2022-09-25T14:55:58.003Z,1.77
2022-09-25T14:58:29.047Z,1.90
2022-09-25T15:01:11.590Z,1.73
2022-09-25T15:03:43.748Z,1.90
2022-09-25T15:06:15.996Z,1.80
2022-09-25T15:08:43.019Z,1.50
2022-09-25T15:11:17.248Z,1.57
2022-09-25T15:13:45.198Z,1.37
2022-09-25T15:16:44.146Z,1.17
2022-09-25T15:19:26.281Z,1.33
2022-09-25T15:21:53.981Z,1.40
2022-09-25T15:24:27.602Z,1.30
2022-09-25T15:27:06.735Z,1.57
2022-09-25T15:29:38.007Z,1.40
2022-09-25T15:32:05.834Z,1.57
2022-09-25T15:34:33.547Z,1.50
2022-09-25T15:37:22.224Z,1.50
2022-09-25T15:39:48.886Z,1.60
2022-09-25T15:42:15.793Z,1.73
2022-09-25T15:44:42.671Z,1.40
2022-09-25T15:47:32.064Z,1.93
2022-09-25T15:49:59.011Z,2.57
2022-09-25T15:52:32.480Z,1.70
2022-09-25T15:55:02.665Z,1.60
2022-09-25T15:57:31.220Z,1.50
2022-09-25T16:00:17.752Z,1.47
2022-09-25T16:03:19.776Z,1.53
2022-09-25T16:05:48.758Z,1.20
2022-09-25T16:08:24.653Z,1.93
2022-09-25T16:11:21.715Z,1.40
2022-09-25T16:13:53.814Z,2.10
2022-09-25T16:16:29.755Z,1.47
2022-09-25T16:18:58.979Z,2.97
2022-09-25T16:21:33.659Z,7.27
2022-09-25T16:24:07.396Z,4.93
2022-09-25T16:26:38.561Z,5.47
2022-09-25T16:29:14.632Z,3.57
2022-09-25T16:31:43.478Z,7.87
2022-09-25T16:34:30.558Z,9.30
2022-09-25T16:37:00.828Z,10.63
2022-09-25T16:39:37.038Z,5.10
2022-09-25T16:42:26.660Z,2.70
2022-09-25T16:45:03.512Z,2.97
2022-09-25T16:47:30.574Z,2.33
2022-09-25T16:49:57.280Z,1.90
2022-09-25T16:52:25.400Z,1.90
2022-09-25T16:54:54.605Z,3.00
2022-09-25T16:57:23.550Z,2.10
2022-09-25T16:59:51.253Z,2.03
2022-09-25T17:02:36.366Z,1.83
2022-09-25T17:05:26.488Z,2.00
2022-09-25T17:07:59.884Z,1.93
2022-09-25T17:10:29.309Z,2.23
2022-09-25T17:12:59.044Z,1.73
2022-09-25T17:15:32.926Z,1.80
2022-09-25T17:18:01.746Z,1.83
2022-09-25T17:20:32.865Z,2.40
2022-09-25T17:23:00.364Z,2.30
2022-09-25T17:25:50.820Z,2.37
2022-09-25T17:28:17.625Z,2.27
2022-09-25T17:30:45.114Z,1.83
2022-09-25T17:33:18.187Z,2.03
2022-09-25T17:35:55.442Z,2.17
2022-09-25T17:38:22.246Z,2.20
2022-09-25T17:40:52.411Z,2.37
2022-09-25T17:43:20.052Z,2.27
2022-09-25T17:45:51.085Z,2.40
2022-09-25T17:48:27.289Z,2.60
2022-09-25T17:50:58.361Z,2.40
2022-09-25T17:53:28.469Z,2.10
2022-09-25T17:55:59.797Z,2.47
2022-09-25T17:58:28.462Z,1.93
2022-09-25T18:00:58.404Z,2.30
2022-09-25T18:03:26.096Z,2.00
2022-09-25T18:05:53.432Z,2.70
2022-09-25T18:08:20.129Z,2.50
2022-09-25T18:10:47.721Z,2.53
2022-09-25T18:13:22.695Z,2.60
2022-09-25T18:15:53.357Z,2.60
2022-09-25T18:18:20.679Z,2.60
2022-09-25T18:21:09.368Z,2.50
2022-09-25T18:23:38.596Z,3.27
2022-09-25T18:26:09.098Z,3.43
2022-09-25T18:28:35.815Z,4.03
2022-09-25T18:31:02.588Z,5.63
2022-09-25T18:33:29.256Z,2.63
2022-09-25T18:35:55.889Z,2.90
2022-09-25T18:38:22.548Z,2.70
2022-09-25T18:40:49.262Z,2.73
2022-09-25T18:43:16.098Z,2.43
2022-09-25T18:45:50.922Z,3.20
2022-09-25T18:48:17.613Z,2.33
2022-09-25T18:50:48.507Z,2.47
2022-09-25T18:53:16.655Z,3.13
2022-09-25T18:55:43.968Z,4.73
2022-09-25T18:58:11.459Z,2.80
2022-09-25T19:00:39.716Z,3.07
2022-09-25T19:03:06.718Z,6.10
2022-09-25T19:05:33.588Z,15.90
2022-09-25T19:08:01.185Z,10.77
2022-09-25T19:10:28.549Z,12.73
2022-09-25T19:12:55.319Z,7.07
2022-09-25T19:15:21.974Z,6.13
2022-09-25T19:17:48.620Z,4.00
2022-09-25T19:20:16.825Z,3.07
2022-09-25T19:22:43.937Z,3.20
2022-09-25T19:25:11.714Z,3.10
2022-09-25T19:27:38.384Z,3.03
2022-09-25T19:30:05.510Z,2.93
2022-09-25T19:32:32.210Z,3.27
2022-09-25T19:34:59.673Z,2.80
2022-09-25T19:37:29.785Z,2.70
2022-09-25T19:40:15.260Z,2.00
2022-09-25T19:42:41.954Z,2.40
2022-09-25T19:45:09.687Z,2.73
2022-09-25T19:47:36.362Z,2.70
2022-09-25T19:50:06.920Z,2.50
2022-09-25T19:52:33.641Z,2.63
2022-09-25T19:55:00.373Z,2.67
2022-09-25T19:57:27.589Z,2.43
2022-09-25T19:59:54.571Z,2.83
2022-09-25T20:02:21.329Z,3.10
2022-09-25T20:04:48.584Z,2.93
2022-09-25T20:07:16.125Z,3.10
2022-09-25T20:09:44.662Z,3.50
2022-09-25T20:12:11.599Z,3.57
2022-09-25T20:14:38.350Z,3.20
2022-09-25T20:17:09.540Z,3.50
2022-09-25T20:19:36.683Z,2.90
2022-09-25T20:22:03.423Z,3.10
2022-09-25T20:24:30.060Z,3.03
2022-09-25T20:26:56.709Z,3.20
2022-09-25T20:29:23.470Z,3.27
2022-09-25T20:31:50.123Z,3.13
2022-09-25T20:34:19.311Z,3.23
2022-09-25T20:36:46.485Z,3.20
2022-09-25T20:39:18.394Z,3.40
2022-09-25T20:41:47.955Z,3.37
2022-09-25T20:44:14.734Z,3.43
2022-09-25T20:46:42.052Z,3.30
2022-09-25T20:49:10.411Z,3.40
2022-09-25T20:51:37.511Z,3.27
2022-09-25T20:54:07.008Z,3.20
2022-09-25T20:56:35.614Z,3.27
2022-09-25T20:59:04.895Z,3.37
2022-09-25T21:01:36.713Z,3.40
2022-09-25T21:04:07.848Z,3.03
2022-09-25T21:06:36.695Z,3.03
2022-09-25T21:09:15.589Z,3.67
2022-09-25T21:11:43.461Z,3.53
2022-09-25T21:14:18.869Z,3.27
2022-09-25T21:16:46.632Z,2.77
2022-09-25T21:19:15.506Z,2.77
2022-09-25T21:21:42.330Z,2.77
2022-09-25T21:24:13.329Z,2.83
2022-09-25T21:26:40.281Z,2.70
2022-09-25T21:29:08.010Z,2.10
2022-09-25T21:31:38.427Z,2.33
2022-09-25T21:34:11.381Z,2.07
2022-09-25T21:36:39.033Z,2.40
2022-09-25T21:39:07.510Z,1.90
2022-09-25T21:41:34.926Z,2.40
2022-09-25T21:44:06.828Z,2.10
2022-09-25T21:46:34.701Z,2.40
2022-09-25T21:49:04.803Z,2.17
2022-09-25T21:51:37.183Z,1.87
2022-09-25T21:54:05.584Z,2.30
2022-09-25T21:56:32.666Z,2.27
2022-09-25T21:59:05.610Z,2.40
2022-09-25T22:01:35.636Z,2.30
2022-09-25T22:04:03.489Z,2.10
2022-09-25T22:06:39.728Z,2.27
2022-09-25T22:09:13.114Z,2.20
2022-09-25T22:11:40.427Z,2.37
2022-09-25T22:14:10.955Z,1.70
2022-09-25T22:16:42.460Z,2.03
2022-09-25T22:19:18.285Z,1.70
2022-09-25T22:21:46.626Z,1.77
2022-09-25T22:24:13.456Z,2.30
2022-09-25T22:26:42.824Z,1.40
2022-09-25T22:29:10.726Z,1.80
2022-09-25T22:31:38.453Z,1.97
2022-09-25T22:34:07.991Z,2.13
2022-09-25T22:36:36.227Z,2.23
2022-09-25T22:39:05.464Z,2.00
2022-09-25T22:41:32.590Z,1.77
2022-09-25T22:44:00.921Z,2.07
2022-09-25T22:46:28.429Z,2.70
2022-09-25T22:48:55.147Z,2.83
2022-09-25T22:51:24.088Z,2.90
2022-09-25T22:53:51.589Z,2.13
2022-09-25T22:56:22.434Z,2.90
2022-09-25T22:58:51.870Z,3.33
2022-09-25T23:01:27.480Z,2.43
2022-09-25T23:03:56.412Z,2.40
2022-09-25T23:06:24.062Z,2.40
2022-09-25T23:08:55.679Z,2.30
2022-09-25T23:11:23.903Z,3.03
2022-09-25T23:14:14.242Z,2.00
2022-09-25T23:16:40.984Z,2.30
2022-09-25T23:19:07.671Z,2.20
2022-09-25T23:21:37.202Z,2.97
2022-09-25T23:24:06.885Z,1.80
2022-09-25T23:26:34.348Z,2.30
2022-09-25T23:29:04.089Z,2.23
2022-09-25T23:31:32.769Z,2.27
2022-09-25T23:34:00.901Z,2.03
2022-09-25T23:36:29.032Z,1.80
2022-09-25T23:38:58.881Z,1.90
2022-09-25T23:41:31.290Z,2.07
2022-09-25T23:44:00.367Z,1.93
2022-09-25T23:46:29.865Z,1.90
2022-09-25T23:48:56.801Z,1.80
2022-09-25T23:51:23.537Z,2.20
2022-09-25T23:53:50.476Z,1.97
2022-09-25T23:56:22.553Z,2.03
2022-09-25T23:58:49.988Z,2.20
